Time;durP1;ratioP1;P1;durP2;ratioP2;P2;SDS_P1;SDS_P2;PMS_P1;PMS_P2;Temp;Humidity;BMP_temperature;BMP_pressure;BME280_temperature;BME280_humidity;BME280_pressure;Samples;Min_cycle;Max_cycle;Signal;HPM_P1;HPM_P2
2022/07/08 00:00:51;;;;;;;58.53;3.00;;;;;;;;;;5094667;28;20972;-66
2022/07/08 00:03:19;;;;;;;59.67;3.37;;;;;;;;;;5094544;28;20490;-66
2022/07/08 00:05:46;;;;;;;59.37;3.30;;;;;;;;;;5093959;28;20453;-65
2022/07/08 00:08:14;;;;;;;58.67;3.00;;;;;;;;;;5094048;28;20455;-66
2022/07/08 00:10:42;;;;;;;59.87;3.03;;;;;;;;;;5094312;28;20907;-66
2022/07/08 00:13:09;;;;;;;59.87;3.17;;;;;;;;;;5094594;28;20978;-65
2022/07/08 00:15:36;;;;;;;58.50;2.80;;;;;;;;;;5090929;28;20442;-65
2022/07/08 00:18:04;;;;;;;58.97;3.20;;;;;;;;;;5094109;28;20458;-65
2022/07/08 00:20:31;;;;;;;60.37;3.30;;;;;;;;;;5094160;28;20445;-66
2022/07/08 00:22:58;;;;;;;58.70;3.10;;;;;;;;;;5094178;28;20848;-65
2022/07/08 00:25:27;;;;;;;61.60;3.00;;;;;;;;;;5093186;28;20453;-66
2022/07/08 00:27:54;;;;;;;58.80;3.07;;;;;;;;;;5094018;28;20450;-65
2022/07/08 00:30:21;;;;;;;58.47;2.90;;;;;;;;;;5093679;28;20453;-66
2022/07/08 00:32:48;;;;;;;59.37;3.20;;;;;;;;;;5094153;28;20445;-65
2022/07/08 00:35:15;;;;;;;59.40;3.70;;;;;;;;;;5093817;28;20471;-66
2022/07/08 00:37:43;;;;;;;60.57;3.30;;;;;;;;;;5092462;28;20820;-65
2022/07/08 00:40:11;;;;;;;59.87;3.73;;;;;;;;;;5093755;28;20451;-66
2022/07/08 00:42:40;;;;;;;59.73;3.53;;;;;;;;;;5093971;28;20482;-65
2022/07/08 00:45:07;;;;;;;58.90;3.30;;;;;;;;;;5093375;28;20470;-65
2022/07/08 00:47:35;;;;;;;58.47;3.17;;;;;;;;;;5090229;28;20450;-66
2022/07/08 00:50:02;;;;;;;61.33;3.03;;;;;;;;;;5093234;28;20457;-66
2022/07/08 00:52:29;;;;;;;59.67;3.50;;;;;;;;;;5093409;28;20541;-65
2022/07/08 00:54:57;;;;;;;64.23;3.70;;;;;;;;;;5093746;28;20465;-65
2022/07/08 00:57:24;;;;;;;59.17;3.43;;;;;;;;;;5092990;28;20580;-66
2022/07/08 00:59:54;;;;;;;59.80;4.27;;;;;;;;;;5093663;28;20446;-66
2022/07/08 01:02:21;;;;;;;60.40;3.40;;;;;;;;;;5093259;28;20993;-65
2022/07/08 01:04:48;;;;;;;60.70;3.70;;;;;;;;;;5093438;28;20492;-65
2022/07/08 01:07:15;;;;;;;59.63;3.73;;;;;;;;;;5092808;28;20623;-66
2022/07/08 01:09:42;;;;;;;62.60;4.13;;;;;;;;;;5093068;28;20446;-65
2022/07/08 01:12:10;;;;;;;59.70;3.63;;;;;;;;;;5093376;28;20804;-66
2022/07/08 01:14:37;;;;;;;59.00;3.87;;;;;;;;;;5093249;28;20461;-66
2022/07/08 01:17:06;;;;;;;58.90;3.80;;;;;;;;;;5092513;28;20938;-65
2022/07/08 01:19:33;;;;;;;59.67;3.57;;;;;;;;;;5089976;28;20450;-65
2022/07/08 01:22:02;;;;;;;59.10;3.57;;;;;;;;;;5093252;28;20480;-65
2022/07/08 01:24:29;;;;;;;60.43;3.90;;;;;;;;;;5093039;28;20575;-65
2022/07/08 01:26:57;;;;;;;59.90;4.00;;;;;;;;;;5092367;28;20447;-65
2022/07/08 01:29:24;;;;;;;59.70;3.43;;;;;;;;;;5092354;28;20957;-66
2022/07/08 01:31:52;;;;;;;60.70;4.23;;;;;;;;;;5092715;28;20450;-66
2022/07/08 01:34:19;;;;;;;61.77;3.73;;;;;;;;;;5092515;28;20896;-66
2022/07/08 01:36:47;;;;;;;59.70;3.93;;;;;;;;;;5089766;28;20473;-65
2022/07/08 01:39:15;;;;;;;58.90;3.97;;;;;;;;;;5092406;28;20439;-65
2022/07/08 01:41:42;;;;;;;61.77;3.93;;;;;;;;;;5092657;28;20448;-66
2022/07/08 01:44:09;;;;;;;59.70;3.50;;;;;;;;;;5092385;28;20488;-65
2022/07/08 01:46:37;;;;;;;66.00;4.10;;;;;;;;;;5092201;28;20519;-66
2022/07/08 01:49:05;;;;;;;60.90;4.27;;;;;;;;;;5092031;28;20953;-66
2022/07/08 01:51:32;;;;;;;61.90;4.23;;;;;;;;;;5089277;28;20452;-66
2022/07/08 01:54:00;;;;;;;60.17;3.87;;;;;;;;;;5092145;28;20538;-65
2022/07/08 01:56:28;;;;;;;59.77;3.60;;;;;;;;;;5092059;28;20444;-65
2022/07/08 01:58:55;;;;;;;60.70;3.80;;;;;;;;;;5092152;28;20448;-66
2022/07/08 02:01:22;;;;;;;59.97;4.17;;;;;;;;;;5092317;28;20820;-66
2022/07/08 02:03:49;;;;;;;59.77;4.07;;;;;;;;;;5092402;28;20485;-66
2022/07/08 02:06:16;;;;;;;63.87;3.70;;;;;;;;;;5091715;28;20534;-66
2022/07/08 02:08:44;;;;;;;59.57;3.33;;;;;;;;;;5091859;28;20841;-65
2022/07/08 02:13:57;;;;;;;59.80;3.90;;;;;;;;;;5091838;28;20453;-65
2022/07/08 02:16:24;;;;;;;60.07;3.50;;;;;;;;;;5092246;28;20543;-65
2022/07/08 02:18:51;;;;;;;59.50;3.60;;;;;;;;;;5091539;28;20475;-65
2022/07/08 02:21:18;;;;;;;60.17;3.53;;;;;;;;;;5091732;28;20452;-66
2022/07/08 02:23:45;;;;;;;60.33;3.53;;;;;;;;;;5088111;28;20497;-65
2022/07/08 02:26:12;;;;;;;64.77;3.93;;;;;;;;;;5091579;28;20828;-66
2022/07/08 02:28:40;;;;;;;59.10;3.43;;;;;;;;;;5091742;28;20450;-65
2022/07/08 02:31:08;;;;;;;63.17;3.70;;;;;;;;;;5091978;28;20455;-65
2022/07/08 02:33:35;;;;;;;63.73;3.97;;;;;;;;;;5091254;28;20498;-66
2022/07/08 02:36:02;;;;;;;62.63;3.47;;;;;;;;;;5091697;28;20454;-65
2022/07/08 02:38:29;;;;;;;62.40;3.20;;;;;;;;;;5091306;28;20475;-65
2022/07/08 02:40:57;;;;;;;60.00;3.30;;;;;;;;;;5091667;28;20460;-66
2022/07/08 02:43:24;;;;;;;58.90;3.20;;;;;;;;;;5091501;28;20864;-65
2022/07/08 02:45:52;;;;;;;58.73;3.20;;;;;;;;;;5091580;28;20451;-65
2022/07/08 02:48:20;;;;;;;61.70;4.03;;;;;;;;;;5090856;28;20956;-66
2022/07/08 02:50:47;;;;;;;58.77;3.10;;;;;;;;;;5091432;28;20452;-65
2022/07/08 02:53:14;;;;;;;60.50;3.30;;;;;;;;;;5090925;28;20464;-65
2022/07/08 02:55:41;;;;;;;59.40;3.60;;;;;;;;;;5091811;28;20546;-66
2022/07/08 02:58:09;;;;;;;63.93;3.77;;;;;;;;;;5087389;28;20938;-65
2022/07/08 03:00:36;;;;;;;61.40;4.00;;;;;;;;;;5090800;28;20543;-65
2022/07/08 03:03:04;;;;;;;59.47;3.70;;;;;;;;;;5091288;28;20821;-66
2022/07/08 03:05:32;;;;;;;60.27;3.67;;;;;;;;;;5091258;28;20534;-65
2022/07/08 03:07:59;;;;;;;62.07;3.73;;;;;;;;;;5090390;28;20458;-66
2022/07/08 03:10:26;;;;;;;60.10;4.27;;;;;;;;;;5091456;28;20450;-66
2022/07/08 03:12:53;;;;;;;59.00;3.17;;;;;;;;;;5091018;28;20456;-66
2022/07/08 03:15:21;;;;;;;59.20;3.30;;;;;;;;;;5091314;28;20444;-66
2022/07/08 03:17:48;;;;;;;59.80;3.60;;;;;;;;;;5090580;28;20879;-66
2022/07/08 03:20:15;;;;;;;59.60;3.20;;;;;;;;;;5090977;28;20447;-64
2022/07/08 03:22:43;;;;;;;59.87;3.30;;;;;;;;;;5091499;28;20451;-66
2022/07/08 03:25:10;;;;;;;59.50;3.67;;;;;;;;;;5090988;28;20566;-66
2022/07/08 03:27:37;;;;;;;60.27;3.23;;;;;;;;;;5091010;28;20458;-65
2022/07/08 03:30:05;;;;;;;60.47;4.07;;;;;;;;;;5087143;28;20455;-66
2022/07/08 03:32:32;;;;;;;62.90;3.40;;;;;;;;;;5090824;28;20542;-66
2022/07/08 03:34:59;;;;;;;61.00;3.20;;;;;;;;;;5090787;28;20996;-65
2022/07/08 03:37:26;;;;;;;65.00;4.00;;;;;;;;;;5090950;28;20453;-66
2022/07/08 03:39:55;;;;;;;59.20;3.47;;;;;;;;;;5090808;28;20453;-65
2022/07/08 03:42:21;;;;;;;65.10;3.70;;;;;;;;;;5091474;28;20458;-65
2022/07/08 03:44:48;;;;;;;60.03;4.00;;;;;;;;;;5090351;28;20487;-65
2022/07/08 03:47:16;;;;;;;63.17;3.97;;;;;;;;;;5090621;28;20454;-64
2022/07/08 03:49:43;;;;;;;62.70;3.60;;;;;;;;;;5090654;28;20507;-66
2022/07/08 03:52:10;;;;;;;59.13;3.40;;;;;;;;;;5090968;28;20472;-65
2022/07/08 03:54:37;;;;;;;62.30;3.97;;;;;;;;;;5090637;28;20831;-66
2022/07/08 03:57:06;;;;;;;62.87;4.87;;;;;;;;;;5091144;28;20543;-66
2022/07/08 03:59:33;;;;;;;60.47;3.57;;;;;;;;;;5090757;28;20476;-66
2022/07/08 04:02:00;;;;;;;59.33;3.77;;;;;;;;;;5087180;28;20948;-65
2022/07/08 04:04:27;;;;;;;59.57;3.30;;;;;;;;;;5090709;28;20489;-65
2022/07/08 04:06:54;;;;;;;59.00;3.60;;;;;;;;;;5090631;28;20459;-65
2022/07/08 04:09:21;;;;;;;60.10;3.97;;;;;;;;;;5090251;28;20444;-65
2022/07/08 04:11:49;;;;;;;63.10;3.70;;;;;;;;;;5091965;28;20448;-65
2022/07/08 04:14:17;;;;;;;59.10;3.53;;;;;;;;;;5093690;28;20479;-65
2022/07/08 04:16:44;;;;;;;60.33;4.00;;;;;;;;;;5094529;28;20448;-65
2022/07/08 04:19:11;;;;;;;59.50;3.53;;;;;;;;;;5093853;28;20455;-65
2022/07/08 04:21:40;;;;;;;60.20;3.50;;;;;;;;;;5094035;28;20449;-65
2022/07/08 04:24:07;;;;;;;59.37;3.50;;;;;;;;;;5094029;28;20517;-66
2022/07/08 04:26:34;;;;;;;61.00;4.00;;;;;;;;;;5094042;28;20847;-66
2022/07/08 04:29:01;;;;;;;61.50;4.30;;;;;;;;;;5093466;28;20454;-65
2022/07/08 04:31:30;;;;;;;61.97;4.20;;;;;;;;;;5094222;28;20447;-66
2022/07/08 04:33:57;;;;;;;59.97;3.37;;;;;;;;;;5089566;28;20485;-65
2022/07/08 04:36:24;;;;;;;61.67;4.20;;;;;;;;;;5093479;28;20447;-65
2022/07/08 04:38:51;;;;;;;61.17;4.30;;;;;;;;;;5093357;28;20534;-65
2022/07/08 04:41:18;;;;;;;59.57;3.70;;;;;;;;;;5093542;28;20456;-65
2022/07/08 04:43:46;;;;;;;60.50;4.20;;;;;;;;;;5093890;28;20479;-65
2022/07/08 04:46:14;;;;;;;59.40;3.37;;;;;;;;;;5093877;28;20443;-65
2022/07/08 04:48:43;;;;;;;59.50;3.70;;;;;;;;;;5093283;28;20452;-65
2022/07/08 04:51:10;;;;;;;59.90;3.53;;;;;;;;;;5093027;28;20474;-65
2022/07/08 04:53:37;;;;;;;63.23;4.00;;;;;;;;;;5093340;28;20473;-66
2022/07/08 04:56:04;;;;;;;58.77;3.10;;;;;;;;;;5093737;28;20449;-65
2022/07/08 04:58:32;;;;;;;60.70;4.00;;;;;;;;;;5093357;28;20451;-65
2022/07/08 05:00:59;;;;;;;64.17;4.07;;;;;;;;;;5093376;28;20945;-66
2022/07/08 05:03:26;;;;;;;59.50;3.90;;;;;;;;;;5091442;28;20472;-64
2022/07/08 05:05:54;;;;;;;59.67;4.00;;;;;;;;;;5092475;28;20482;-65
2022/07/08 05:08:21;;;;;;;60.00;3.77;;;;;;;;;;5093083;28;20458;-65
2022/07/08 05:10:49;;;;;;;59.90;3.60;;;;;;;;;;5092791;28;20828;-66
2022/07/08 05:13:16;;;;;;;63.70;4.10;;;;;;;;;;5093102;28;20463;-65
2022/07/08 05:15:43;;;;;;;62.10;4.23;;;;;;;;;;5092890;28;20447;-66
2022/07/08 05:18:11;;;;;;;59.20;3.73;;;;;;;;;;5092794;28;20791;-65
2022/07/08 05:20:38;;;;;;;67.43;4.27;;;;;;;;;;5092504;28;20935;-65
2022/07/08 05:23:08;;;;;;;61.83;5.40;;;;;;;;;;5092538;28;20816;-66
2022/07/08 05:25:35;;;;;;;62.40;4.33;;;;;;;;;;5093083;28;20484;-65
2022/07/08 05:28:02;;;;;;;59.60;3.70;;;;;;;;;;5092763;28;20533;-65
2022/07/08 05:30:30;;;;;;;60.43;4.13;;;;;;;;;;5092422;28;20455;-66
2022/07/08 05:32:57;;;;;;;59.83;3.93;;;;;;;;;;5092702;28;20447;-65
2022/07/08 05:35:24;;;;;;;59.50;4.00;;;;;;;;;;5089842;28;20947;-65
2022/07/08 05:37:51;;;;;;;59.77;3.57;;;;;;;;;;5092091;28;20451;-65
2022/07/08 05:40:19;;;;;;;61.10;4.60;;;;;;;;;;5092535;28;20453;-66
2022/07/08 05:42:46;;;;;;;61.10;4.13;;;;;;;;;;5092606;28;20447;-66
2022/07/08 05:45:14;;;;;;;58.80;3.47;;;;;;;;;;5092843;28;20501;-66
2022/07/08 05:47:41;;;;;;;62.53;4.07;;;;;;;;;;5092152;28;20460;-65
2022/07/08 05:50:09;;;;;;;60.47;4.17;;;;;;;;;;5092234;28;20462;-65
2022/07/08 05:52:36;;;;;;;59.53;3.43;;;;;;;;;;5092560;28;20450;-65
2022/07/08 05:55:03;;;;;;;60.10;3.67;;;;;;;;;;5092305;28;20466;-65
2022/07/08 05:57:31;;;;;;;60.27;3.63;;;;;;;;;;5091980;28;20950;-65
2022/07/08 05:59:58;;;;;;;59.77;3.50;;;;;;;;;;5092298;28;20816;-66
2022/07/08 06:02:26;;;;;;;59.47;3.57;;;;;;;;;;5091723;28;20481;-65
2022/07/08 06:04:53;;;;;;;62.93;3.60;;;;;;;;;;5092499;28;20493;-66
2022/07/08 06:07:20;;;;;;;59.67;3.60;;;;;;;;;;5089178;28;20450;-66
2022/07/08 06:09:47;;;;;;;59.57;3.37;;;;;;;;;;5091658;28;20456;-64
2022/07/08 06:12:14;;;;;;;59.90;4.23;;;;;;;;;;5091497;28;20496;-65
2022/07/08 06:14:43;;;;;;;60.50;3.60;;;;;;;;;;5092148;28;20473;-64
2022/07/08 06:17:10;;;;;;;60.97;3.73;;;;;;;;;;5091517;28;21019;-67
2022/07/08 06:19:37;;;;;;;60.40;3.83;;;;;;;;;;5092039;28;20764;-66
2022/07/08 06:22:05;;;;;;;62.87;3.43;;;;;;;;;;5091769;28;20451;-66
2022/07/08 06:24:32;;;;;;;60.37;3.30;;;;;;;;;;5091716;28;20509;-65
2022/07/08 06:26:59;;;;;;;58.67;3.10;;;;;;;;;;5092215;28;20452;-66
2022/07/08 06:29:26;;;;;;;59.93;3.13;;;;;;;;;;5088958;28;20939;-65
2022/07/08 06:31:55;;;;;;;59.60;3.60;;;;;;;;;;5091389;28;20452;-65
2022/07/08 06:34:22;;;;;;;58.80;3.10;;;;;;;;;;5090772;28;20930;-66
2022/07/08 06:36:49;;;;;;;59.03;3.00;;;;;;;;;;5091709;28;20448;-65
2022/07/08 06:39:16;;;;;;;58.30;2.67;;;;;;;;;;5091612;28;20813;-65
2022/07/08 06:41:44;;;;;;;58.67;3.20;;;;;;;;;;5091223;28;20545;-66
2022/07/08 06:44:11;;;;;;;58.97;3.00;;;;;;;;;;5091134;28;20464;-65
2022/07/08 06:46:38;;;;;;;59.17;2.90;;;;;;;;;;5091941;28;20448;-66
2022/07/08 06:49:06;;;;;;;58.90;3.53;;;;;;;;;;5090929;28;20454;-66
2022/07/08 06:51:33;;;;;;;62.33;3.30;;;;;;;;;;5091224;28;20452;-65
2022/07/08 06:56:45;;;;;;;60.40;3.30;;;;;;;;;;5091293;28;20428;-65
2022/07/08 06:59:12;;;;;;;61.77;3.27;;;;;;;;;;5090686;28;20825;-65
2022/07/08 07:01:40;;;;;;;77.93;3.97;;;;;;;;;;5090309;28;20825;-66
2022/07/08 07:04:09;;;;;;;60.10;2.60;;;;;;;;;;5091327;28;20552;-65
2022/07/08 07:06:37;;;;;;;60.40;3.50;;;;;;;;;;5091392;28;20490;-66
2022/07/08 07:09:04;;;;;;;59.47;2.77;;;;;;;;;;5090934;28;20446;-66
2022/07/08 07:11:31;;;;;;;58.80;2.70;;;;;;;;;;5090942;28;20488;-65
2022/07/08 07:13:58;;;;;;;58.40;2.90;;;;;;;;;;5091123;28;20492;-66
2022/07/08 07:16:25;;;;;;;58.60;2.90;;;;;;;;;;5091059;28;20943;-65
2022/07/08 07:18:53;;;;;;;58.30;2.60;;;;;;;;;;5090940;28;20453;-65
2022/07/08 07:21:21;;;;;;;58.30;2.50;;;;;;;;;;5091029;28;20452;-65
2022/07/08 07:23:48;;;;;;;59.60;3.10;;;;;;;;;;5090726;28;20462;-66
2022/07/08 07:26:15;;;;;;;58.60;2.73;;;;;;;;;;5091431;28;20830;-65
2022/07/08 07:28:42;;;;;;;58.60;2.80;;;;;;;;;;5091286;28;20446;-66
2022/07/08 07:31:10;;;;;;;58.40;2.80;;;;;;;;;;5088552;28;20453;-66
2022/07/08 07:33:37;;;;;;;58.30;2.60;;;;;;;;;;5090222;28;20486;-66
2022/07/08 07:36:04;;;;;;;58.67;2.80;;;;;;;;;;5091367;28;20790;-65
2022/07/08 07:38:34;;;;;;;59.50;2.50;;;;;;;;;;5090953;28;20450;-66
2022/07/08 07:41:01;;;;;;;59.00;2.57;;;;;;;;;;5091161;28;20828;-65
2022/07/08 07:43:28;;;;;;;59.40;2.70;;;;;;;;;;5090569;28;20476;-65
2022/07/08 07:45:55;;;;;;;57.40;2.60;;;;;;;;;;5092704;28;20542;-66
2022/07/08 07:48:22;;;;;;;57.97;2.90;;;;;;;;;;5094788;28;20457;-65
2022/07/08 07:50:49;;;;;;;67.17;3.23;;;;;;;;;;5094442;28;20532;-66
2022/07/08 07:53:16;;;;;;;58.57;2.93;;;;;;;;;;5094322;28;20481;-66
2022/07/08 07:55:45;;;;;;;63.47;2.70;;;;;;;;;;5094818;28;20453;-66
2022/07/08 07:58:12;;;;;;;60.70;3.00;;;;;;;;;;5094380;28;20755;-66
2022/07/08 08:00:39;;;;;;;59.37;2.60;;;;;;;;;;5094863;28;20457;-66
2022/07/08 08:03:06;;;;;;;57.87;2.70;;;;;;;;;;5092208;28;20847;-66
2022/07/08 08:05:33;;;;;;;58.40;2.63;;;;;;;;;;5094274;28;20488;-66
2022/07/08 08:08:01;;;;;;;58.07;2.60;;;;;;;;;;5094369;28;20447;-65
2022/07/08 08:10:28;;;;;;;58.77;2.50;;;;;;;;;;5094315;28;20442;-66
2022/07/08 08:12:56;;;;;;;58.43;2.60;;;;;;;;;;5093867;28;20450;-64
2022/07/08 08:15:26;;;;;;;61.07;3.17;;;;;;;;;;5094399;28;20442;-65
2022/07/08 08:17:53;;;;;;;58.60;3.00;;;;;;;;;;5093721;28;20456;-66
2022/07/08 08:20:21;;;;;;;58.97;3.10;;;;;;;;;;5094555;28;20450;-66
2022/07/08 08:22:48;;;;;;;59.30;2.70;;;;;;;;;;5093845;28;20938;-65
2022/07/08 08:25:15;;;;;;;58.47;2.93;;;;;;;;;;5094123;28;20561;-65
2022/07/08 08:27:42;;;;;;;59.77;3.00;;;;;;;;;;5094079;28;20466;-65
2022/07/08 08:30:11;;;;;;;60.47;2.63;;;;;;;;;;5094037;28;20438;-66
2022/07/08 08:32:39;;;;;;;60.07;3.13;;;;;;;;;;5093235;28;20450;-66
2022/07/08 08:35:06;;;;;;;58.40;2.80;;;;;;;;;;5091694;28;20552;-64
2022/07/08 08:37:33;;;;;;;59.80;3.00;;;;;;;;;;5093661;28;20446;-63
2022/07/08 08:40:02;;;;;;;58.20;2.70;;;;;;;;;;5093858;28;20447;-65
2022/07/08 08:42:30;;;;;;;58.57;2.80;;;;;;;;;;5093615;28;20454;-65
2022/07/08 08:44:58;;;;;;;58.80;2.67;;;;;;;;;;5093140;28;20466;-65
2022/07/08 08:47:28;;;;;;;58.23;2.63;;;;;;;;;;5093651;28;20451;-65
2022/07/08 08:49:56;;;;;;;58.80;2.50;;;;;;;;;;5093884;28;20473;-65
2022/07/08 08:52:24;;;;;;;61.77;3.10;;;;;;;;;;5093428;28;20447;-66
2022/07/08 08:54:53;;;;;;;59.20;2.87;;;;;;;;;;5092865;28;20531;-65
2022/07/08 08:57:21;;;;;;;59.20;2.83;;;;;;;;;;5092818;28;20450;-66
2022/07/08 08:59:48;;;;;;;59.77;2.60;;;;;;;;;;5093644;28;20911;-65
2022/07/08 09:02:15;;;;;;;62.63;2.90;;;;;;;;;;5093557;28;20473;-65
2022/07/08 09:04:44;;;;;;;58.97;2.80;;;;;;;;;;5093313;28;20466;-64
2022/07/08 09:07:11;;;;;;;59.57;2.60;;;;;;;;;;5090698;28;20496;-65
2022/07/08 09:09:38;;;;;;;60.37;2.70;;;;;;;;;;5093579;28;20752;-65
2022/07/08 09:12:18;;;;;;;62.97;3.07;;;;;;;;;;5092829;28;20451;-66
2022/07/08 09:14:50;;;;;;;58.80;2.50;;;;;;;;;;5092782;28;20470;-65
2022/07/08 09:17:17;;;;;;;59.20;2.80;;;;;;;;;;5092865;28;20455;-65
2022/07/08 09:19:48;;;;;;;63.80;2.67;;;;;;;;;;5093066;28;20504;-64
2022/07/08 09:22:16;;;;;;;57.97;2.40;;;;;;;;;;5092939;28;20829;-64
2022/07/08 09:24:44;;;;;;;57.93;2.47;;;;;;;;;;5092604;28;20469;-65
2022/07/08 09:27:12;;;;;;;58.27;2.27;;;;;;;;;;5092673;28;21001;-65
2022/07/08 09:29:40;;;;;;;59.27;2.50;;;;;;;;;;5093413;28;20829;-65
2022/07/08 09:32:12;;;;;;;58.67;2.37;;;;;;;;;;5092903;28;20529;-65
2022/07/08 09:34:39;;;;;;;58.20;2.90;;;;;;;;;;5092165;28;20470;-65
2022/07/08 09:37:12;;;;;;;59.67;2.47;;;;;;;;;;5089987;28;20457;-66
2022/07/08 09:39:39;;;;;;;58.50;2.50;;;;;;;;;;5092780;28;20453;-65
2022/07/08 09:42:08;;;;;;;59.57;3.23;;;;;;;;;;5093166;28;20442;-66
2022/07/08 09:44:35;;;;;;;58.30;2.60;;;;;;;;;;5092211;28;20807;-66
2022/07/08 09:47:02;;;;;;;60.20;2.77;;;;;;;;;;5092443;28;20485;-65
2022/07/08 09:49:30;;;;;;;65.63;2.90;;;;;;;;;;5092340;28;20563;-65
2022/07/08 09:51:57;;;;;;;59.00;2.90;;;;;;;;;;5092526;28;21153;-66
2022/07/08 09:54:26;;;;;;;58.07;2.60;;;;;;;;;;5091945;28;20905;-65
2022/07/08 09:57:00;;;;;;;58.40;2.73;;;;;;;;;;5092370;28;20538;-65
2022/07/08 09:59:27;;;;;;;60.83;2.83;;;;;;;;;;5092032;28;20546;-66
2022/07/08 10:01:55;;;;;;;58.00;2.77;;;;;;;;;;5092225;28;20443;-66
2022/07/08 10:04:24;;;;;;;60.10;2.77;;;;;;;;;;5092205;28;20470;-64
2022/07/08 10:06:51;;;;;;;58.77;2.50;;;;;;;;;;5092082;28;20490;-66
2022/07/08 10:09:18;;;;;;;58.53;2.67;;;;;;;;;;5089685;28;20569;-66
2022/07/08 10:11:48;;;;;;;59.23;2.47;;;;;;;;;;5092152;28;20554;-66
2022/07/08 10:14:15;;;;;;;60.70;2.60;;;;;;;;;;5091477;28;20923;-65
2022/07/08 10:16:43;;;;;;;61.03;2.80;;;;;;;;;;5091763;28;20446;-65
2022/07/08 10:19:13;;;;;;;60.70;2.70;;;;;;;;;;5091768;28;20545;-65
2022/07/08 10:21:42;;;;;;;58.97;2.60;;;;;;;;;;5092037;28;21018;-65
2022/07/08 10:24:10;;;;;;;60.10;4.00;;;;;;;;;;5091578;28;20559;-65
2022/07/08 10:26:40;;;;;;;59.90;3.27;;;;;;;;;;5091565;28;20524;-66
2022/07/08 10:29:09;;;;;;;59.17;2.53;;;;;;;;;;5091613;28;20490;-66
2022/07/08 10:31:42;;;;;;;58.40;2.50;;;;;;;;;;5092003;28;20443;-65
2022/07/08 10:34:10;;;;;;;58.03;2.10;;;;;;;;;;5091250;28;20489;-66
2022/07/08 10:36:46;;;;;;;58.40;2.43;;;;;;;;;;5091651;28;20530;-65
2022/07/08 10:39:14;;;;;;;58.50;2.40;;;;;;;;;;5091139;28;20525;-66
2022/07/08 10:41:42;;;;;;;59.07;2.40;;;;;;;;;;5089375;28;20463;-66
2022/07/08 10:44:10;;;;;;;63.40;2.27;;;;;;;;;;5091530;28;20467;-66
2022/07/08 10:46:37;;;;;;;58.70;1.90;;;;;;;;;;5091194;28;20482;-66
2022/07/08 10:49:05;;;;;;;61.30;2.23;;;;;;;;;;5091628;28;20449;-66
2022/07/08 10:51:46;;;;;;;59.07;2.10;;;;;;;;;;5091552;28;20456;-65
2022/07/08 10:54:26;;;;;;;58.60;2.40;;;;;;;;;;5090767;28;20474;-64
2022/07/08 10:56:54;;;;;;;60.57;2.20;;;;;;;;;;5091520;28;20442;-64
2022/07/08 10:59:23;;;;;;;61.30;2.20;;;;;;;;;;5091209;28;20458;-65
2022/07/08 11:01:53;;;;;;;57.60;2.00;;;;;;;;;;5091225;28;20446;-65
2022/07/08 11:04:21;;;;;;;58.30;1.90;;;;;;;;;;5091220;28;20466;-65
2022/07/08 11:06:49;;;;;;;57.50;2.03;;;;;;;;;;5091162;28;20858;-65
2022/07/08 11:09:17;;;;;;;59.77;2.20;;;;;;;;;;5091253;28;20450;-66
2022/07/08 11:11:46;;;;;;;61.53;2.30;;;;;;;;;;5089241;28;20935;-66
2022/07/08 11:14:13;;;;;;;58.47;2.10;;;;;;;;;;5091043;28;20548;-65
2022/07/08 11:16:42;;;;;;;57.50;2.20;;;;;;;;;;5091042;28;20450;-66
2022/07/08 11:19:09;;;;;;;58.07;1.97;;;;;;;;;;5090749;28;20453;-65
2022/07/08 11:21:36;;;;;;;57.37;2.27;;;;;;;;;;5093827;28;20446;-65
2022/07/08 11:24:03;;;;;;;58.50;2.17;;;;;;;;;;5094919;28;20466;-66
2022/07/08 11:26:31;;;;;;;57.97;2.40;;;;;;;;;;5093805;28;20474;-65
2022/07/08 11:28:58;;;;;;;58.70;2.27;;;;;;;;;;5093636;28;20481;-66
2022/07/08 11:31:26;;;;;;;57.13;2.00;;;;;;;;;;5094452;28;20452;-65
2022/07/08 11:33:54;;;;;;;57.10;1.90;;;;;;;;;;5093344;28;20854;-65
2022/07/08 11:36:22;;;;;;;58.17;2.20;;;;;;;;;;5094277;28;20529;-65
2022/07/08 11:38:50;;;;;;;57.10;2.00;;;;;;;;;;5094043;28;20541;-65
2022/07/08 11:41:20;;;;;;;57.17;2.20;;;;;;;;;;5093812;28;20446;-65
2022/07/08 11:43:47;;;;;;;56.80;1.97;;;;;;;;;;5092016;28;20482;-64
2022/07/08 11:46:18;;;;;;;60.80;2.47;;;;;;;;;;5094510;28;20564;-65
2022/07/08 11:48:45;;;;;;;58.83;1.83;;;;;;;;;;5093622;28;20442;-64
2022/07/08 11:51:15;;;;;;;56.77;1.73;;;;;;;;;;5094695;28;20472;-65
2022/07/08 11:53:42;;;;;;;56.57;1.60;;;;;;;;;;5094360;28;20878;-65
2022/07/08 11:56:09;;;;;;;57.07;1.63;;;;;;;;;;5094418;28;20443;-65
2022/07/08 11:58:37;;;;;;;57.27;1.83;;;;;;;;;;5094039;28;20549;-65
2022/07/08 12:01:04;;;;;;;58.07;2.00;;;;;;;;;;5094864;28;20537;-66
2022/07/08 12:03:34;;;;;;;57.40;1.90;;;;;;;;;;5094590;28;20466;-64
2022/07/08 12:06:02;;;;;;;57.77;2.10;;;;;;;;;;5094137;28;20785;-66
2022/07/08 12:08:32;;;;;;;58.50;2.00;;;;;;;;;;5094596;28;20439;-65
2022/07/08 12:11:12;;;;;;;57.57;1.80;;;;;;;;;;5094896;28;20861;-65
2022/07/08 12:13:43;;;;;;;56.70;1.70;;;;;;;;;;5094159;28;20462;-65
2022/07/08 12:16:10;;;;;;;56.60;1.80;;;;;;;;;;5092247;28;20540;-65
2022/07/08 12:18:40;;;;;;;57.37;2.00;;;;;;;;;;5093958;28;20446;-65
2022/07/08 12:21:22;;;;;;;56.70;1.90;;;;;;;;;;5094259;28;20955;-65
2022/07/08 12:23:57;;;;;;;57.40;1.80;;;;;;;;;;5091841;28;20474;-64
2022/07/08 12:26:24;;;;;;;58.67;2.00;;;;;;;;;;5093763;28;21081;-64
2022/07/08 12:28:51;;;;;;;57.40;2.17;;;;;;;;;;5093951;28;20439;-66
2022/07/08 12:31:34;;;;;;;57.70;2.57;;;;;;;;;;5093962;28;20532;-65
2022/07/08 12:34:02;;;;;;;59.70;2.17;;;;;;;;;;5092911;28;20478;-65
2022/07/08 12:36:29;;;;;;;57.20;2.00;;;;;;;;;;5093802;28;20508;-66
2022/07/08 12:38:58;;;;;;;57.37;2.10;;;;;;;;;;5093375;28;20478;-65
2022/07/08 12:41:25;;;;;;;57.93;2.10;;;;;;;;;;5094013;28;20447;-65
2022/07/08 12:43:52;;;;;;;57.77;2.00;;;;;;;;;;5094178;28;20466;-65
2022/07/08 12:46:19;;;;;;;58.07;1.93;;;;;;;;;;5093826;28;20451;-65
2022/07/08 12:48:47;;;;;;;58.73;1.97;;;;;;;;;;5090803;28;20951;-65
2022/07/08 12:51:14;;;;;;;57.30;2.00;;;;;;;;;;5093951;28;20454;-66
2022/07/08 12:53:41;;;;;;;57.53;2.33;;;;;;;;;;5093183;28;20466;-63
2022/07/08 12:56:10;;;;;;;57.47;2.00;;;;;;;;;;5092724;28;20454;-64
2022/07/08 12:58:37;;;;;;;57.70;2.10;;;;;;;;;;5092207;28;20450;-64
2022/07/08 13:01:04;;;;;;;57.10;2.20;;;;;;;;;;5092935;28;20533;-65
2022/07/08 13:03:31;;;;;;;57.30;1.70;;;;;;;;;;5093337;28;20462;-65
2022/07/08 13:05:59;;;;;;;56.67;1.70;;;;;;;;;;5092893;28;20450;-66
2022/07/08 13:08:26;;;;;;;58.57;3.47;;;;;;;;;;5093092;28;20575;-66
2022/07/08 13:10:53;;;;;;;58.73;2.07;;;;;;;;;;5093678;28;20894;-66
2022/07/08 13:13:22;;;;;;;58.07;1.80;;;;;;;;;;5093127;28;20472;-66
2022/07/08 13:15:49;;;;;;;57.10;1.80;;;;;;;;;;5092624;28;20449;-66
2022/07/08 13:18:16;;;;;;;57.47;2.07;;;;;;;;;;5092261;28;20486;-65
2022/07/08 13:20:43;;;;;;;57.17;2.07;;;;;;;;;;5092203;28;20469;-64
2022/07/08 13:23:12;;;;;;;57.00;2.30;;;;;;;;;;5093051;28;20467;-65
2022/07/08 13:25:39;;;;;;;57.63;2.00;;;;;;;;;;5092778;28;20442;-65
2022/07/08 13:28:06;;;;;;;58.17;2.20;;;;;;;;;;5092433;28;20431;-64
2022/07/08 13:30:35;;;;;;;57.60;1.90;;;;;;;;;;5093158;28;20443;-65
2022/07/08 13:33:02;;;;;;;57.00;2.10;;;;;;;;;;5092766;28;20447;-65
2022/07/08 13:35:29;;;;;;;57.43;2.07;;;;;;;;;;5092791;28;20472;-65
2022/07/08 13:37:56;;;;;;;57.20;2.00;;;;;;;;;;5091956;28;21017;-65
2022/07/08 13:40:23;;;;;;;57.10;2.13;;;;;;;;;;5092593;28;20446;-64
2022/07/08 13:42:50;;;;;;;56.97;1.83;;;;;;;;;;5092053;28;20865;-65
2022/07/08 13:45:18;;;;;;;58.20;2.10;;;;;;;;;;5092564;28;20446;-64
2022/07/08 13:47:46;;;;;;;58.13;2.20;;;;;;;;;;5092404;28;20448;-65
2022/07/08 13:50:13;;;;;;;59.10;2.10;;;;;;;;;;5090631;28;20454;-65
2022/07/08 13:52:40;;;;;;;58.10;2.33;;;;;;;;;;5092707;28;20446;-64
2022/07/08 13:55:08;;;;;;;58.73;2.57;;;;;;;;;;5092010;28;20469;-65
2022/07/08 13:57:35;;;;;;;58.17;2.23;;;;;;;;;;5091655;28;20914;-65
2022/07/08 14:00:03;;;;;;;57.20;2.07;;;;;;;;;;5092092;28;20961;-65
2022/07/08 14:02:30;;;;;;;57.00;1.97;;;;;;;;;;5092278;28;20474;-64
2022/07/08 14:04:58;;;;;;;56.90;1.87;;;;;;;;;;5092232;28;20466;-65
2022/07/08 14:07:26;;;;;;;58.47;2.20;;;;;;;;;;5091976;28;20451;-64
2022/07/08 14:09:53;;;;;;;57.50;2.20;;;;;;;;;;5091856;28;20453;-64
2022/07/08 14:12:21;;;;;;;58.27;2.30;;;;;;;;;;5092286;28;20460;-66
2022/07/08 14:14:48;;;;;;;57.50;2.20;;;;;;;;;;5091702;28;21180;-65
2022/07/08 14:17:16;;;;;;;58.60;2.10;;;;;;;;;;5091324;28;21022;-65
2022/07/08 14:19:43;;;;;;;58.27;2.10;;;;;;;;;;5091981;28;20443;-64
2022/07/08 14:22:11;;;;;;;57.50;2.07;;;;;;;;;;5091522;28;20446;-65
2022/07/08 14:24:38;;;;;;;57.20;2.00;;;;;;;;;;5091761;28;20463;-65
2022/07/08 14:27:06;;;;;;;58.67;2.50;;;;;;;;;;5092062;28;20443;-65
2022/07/08 14:29:33;;;;;;;57.60;1.70;;;;;;;;;;5092345;28;20451;-66
2022/07/08 14:32:00;;;;;;;58.60;1.90;;;;;;;;;;5092335;28;20446;-66
2022/07/08 14:34:29;;;;;;;58.47;1.93;;;;;;;;;;5091903;28;20477;-65
2022/07/08 14:36:58;;;;;;;57.33;1.87;;;;;;;;;;5091969;28;20937;-65
2022/07/08 14:39:26;;;;;;;57.27;2.40;;;;;;;;;;5092110;28;20479;-63